sensor_id;sensor_type;location;lat;lon;timestamp;P1;durP1;ratioP1;P2;durP2;ratioP2
81396;SDS011;70852;49.908;8.126;2024-03-22T00:02:08;12.07;;;6.60;;
81396;SDS011;70852;49.908;8.126;2024-03-22T00:04:36;11.77;;;6.15;;
81396;SDS011;70852;49.908;8.126;2024-03-22T00:07:02;12.32;;;6.40;;
81396;SDS011;70852;49.908;8.126;2024-03-22T00:09:28;13.38;;;6.25;;
81396;SDS011;70852;49.908;8.126;2024-03-22T00:11:56;10.80;;;5.82;;
81396;SDS011;70852;49.908;8.126;2024-03-22T00:14:23;13.35;;;6.30;;
81396;SDS011;70852;49.908;8.126;2024-03-22T00:16:50;14.27;;;6.47;;
81396;SDS011;70852;49.908;8.126;2024-03-22T00:19:17;11.75;;;5.60;;
81396;SDS011;70852;49.908;8.126;2024-03-22T00:21:44;11.70;;;6.18;;
81396;SDS011;70852;49.908;8.126;2024-03-22T00:24:10;13.82;;;6.68;;
81396;SDS011;70852;49.908;8.126;2024-03-22T00:26:35;13.02;;;6.20;;
81396;SDS011;70852;49.908;8.126;2024-03-22T00:29:05;12.18;;;6.18;;
81396;SDS011;70852;49.908;8.126;2024-03-22T00:31:33;14.48;;;6.75;;
81396;SDS011;70852;49.908;8.126;2024-03-22T00:33:58;14.68;;;6.72;;
81396;SDS011;70852;49.908;8.126;2024-03-22T00:36:26;14.90;;;6.38;;
81396;SDS011;70852;49.908;8.126;2024-03-22T00:38:51;12.15;;;6.10;;
81396;SDS011;70852;49.908;8.126;2024-03-22T00:41:16;11.35;;;5.65;;
81396;SDS011;70852;49.908;8.126;2024-03-22T00:43:41;12.15;;;6.03;;
81396;SDS011;70852;49.908;8.126;2024-03-22T00:46:09;13.18;;;6.03;;
81396;SDS011;70852;49.908;8.126;2024-03-22T00:48:35;13.70;;;6.25;;
81396;SDS011;70852;49.908;8.126;2024-03-22T00:51:02;12.07;;;5.70;;
81396;SDS011;70852;49.908;8.126;2024-03-22T00:53:30;14.95;;;6.35;;
81396;SDS011;70852;49.908;8.126;2024-03-22T00:55:55;13.43;;;6.80;;
81396;SDS011;70852;49.908;8.126;2024-03-22T00:58:26;13.90;;;6.45;;
81396;SDS011;70852;49.908;8.126;2024-03-22T01:00:54;13.23;;;7.07;;
81396;SDS011;70852;49.908;8.126;2024-03-22T01:03:22;13.95;;;7.00;;
81396;SDS011;70852;49.908;8.126;2024-03-22T01:05:48;12.95;;;6.90;;
81396;SDS011;70852;49.908;8.126;2024-03-22T01:08:19;14.63;;;6.57;;
81396;SDS011;70852;49.908;8.126;2024-03-22T01:10:47;14.48;;;6.68;;
81396;SDS011;70852;49.908;8.126;2024-03-22T01:13:14;16.38;;;6.93;;
81396;SDS011;70852;49.908;8.126;2024-03-22T01:15:40;12.82;;;6.20;;
81396;SDS011;70852;49.908;8.126;2024-03-22T01:18:08;11.20;;;5.85;;
81396;SDS011;70852;49.908;8.126;2024-03-22T01:20:33;15.55;;;6.28;;
81396;SDS011;70852;49.908;8.126;2024-03-22T01:22:59;12.68;;;5.97;;
81396;SDS011;70852;49.908;8.126;2024-03-22T01:25:29;13.07;;;6.00;;
81396;SDS011;70852;49.908;8.126;2024-03-22T01:27:55;12.65;;;6.15;;
81396;SDS011;70852;49.908;8.126;2024-03-22T01:30:20;11.98;;;5.97;;
81396;SDS011;70852;49.908;8.126;2024-03-22T01:32:48;14.43;;;6.53;;
81396;SDS011;70852;49.908;8.126;2024-03-22T01:35:16;16.25;;;7.00;;
81396;SDS011;70852;49.908;8.126;2024-03-22T01:37:44;14.80;;;6.22;;
81396;SDS011;70852;49.908;8.126;2024-03-22T01:40:12;13.73;;;6.53;;
81396;SDS011;70852;49.908;8.126;2024-03-22T01:42:38;14.95;;;6.32;;
81396;SDS011;70852;49.908;8.126;2024-03-22T01:45:06;14.85;;;6.55;;
81396;SDS011;70852;49.908;8.126;2024-03-22T01:47:31;15.40;;;6.13;;
81396;SDS011;70852;49.908;8.126;2024-03-22T01:49:57;11.02;;;5.03;;
81396;SDS011;70852;49.908;8.126;2024-03-22T01:52:28;12.10;;;6.15;;
81396;SDS011;70852;49.908;8.126;2024-03-22T01:54:54;14.75;;;6.43;;
81396;SDS011;70852;49.908;8.126;2024-03-22T01:57:20;13.88;;;5.63;;
81396;SDS011;70852;49.908;8.126;2024-03-22T01:59:47;13.93;;;6.22;;
81396;SDS011;70852;49.908;8.126;2024-03-22T02:02:18;13.57;;;6.00;;
81396;SDS011;70852;49.908;8.126;2024-03-22T02:04:49;12.80;;;5.90;;
81396;SDS011;70852;49.908;8.126;2024-03-22T02:07:15;16.23;;;6.65;;
81396;SDS011;70852;49.908;8.126;2024-03-22T02:09:41;13.98;;;6.60;;
81396;SDS011;70852;49.908;8.126;2024-03-22T02:12:08;12.07;;;6.20;;
81396;SDS011;70852;49.908;8.126;2024-03-22T02:14:36;13.90;;;5.88;;
81396;SDS011;70852;49.908;8.126;2024-03-22T02:17:02;12.93;;;5.95;;
81396;SDS011;70852;49.908;8.126;2024-03-22T02:19:32;13.52;;;5.88;;
81396;SDS011;70852;49.908;8.126;2024-03-22T02:21:57;13.45;;;6.05;;
81396;SDS011;70852;49.908;8.126;2024-03-22T02:24:22;12.18;;;6.20;;
81396;SDS011;70852;49.908;8.126;2024-03-22T02:26:48;11.93;;;5.53;;
81396;SDS011;70852;49.908;8.126;2024-03-22T02:29:15;11.32;;;5.28;;
81396;SDS011;70852;49.908;8.126;2024-03-22T02:31:41;10.75;;;5.15;;
81396;SDS011;70852;49.908;8.126;2024-03-22T02:34:10;13.75;;;6.00;;
81396;SDS011;70852;49.908;8.126;2024-03-22T02:36:36;14.65;;;5.80;;
81396;SDS011;70852;49.908;8.126;2024-03-22T02:39:04;10.85;;;5.97;;
81396;SDS011;70852;49.908;8.126;2024-03-22T02:41:33;16.70;;;5.68;;
81396;SDS011;70852;49.908;8.126;2024-03-22T02:44:01;14.38;;;5.88;;
81396;SDS011;70852;49.908;8.126;2024-03-22T02:46:27;12.73;;;6.18;;
81396;SDS011;70852;49.908;8.126;2024-03-22T02:48:52;12.27;;;5.90;;
81396;SDS011;70852;49.908;8.126;2024-03-22T02:51:18;12.15;;;5.72;;
81396;SDS011;70852;49.908;8.126;2024-03-22T02:53:43;13.80;;;6.50;;
81396;SDS011;70852;49.908;8.126;2024-03-22T02:56:13;13.45;;;6.13;;
81396;SDS011;70852;49.908;8.126;2024-03-22T02:58:38;14.80;;;6.68;;
81396;SDS011;70852;49.908;8.126;2024-03-22T03:01:05;13.25;;;6.13;;
81396;SDS011;70852;49.908;8.126;2024-03-22T03:03:30;13.07;;;6.55;;
81396;SDS011;70852;49.908;8.126;2024-03-22T03:05:58;13.05;;;5.90;;
81396;SDS011;70852;49.908;8.126;2024-03-22T03:08:23;13.60;;;6.47;;
81396;SDS011;70852;49.908;8.126;2024-03-22T03:10:51;14.90;;;6.20;;
81396;SDS011;70852;49.908;8.126;2024-03-22T03:13:16;13.15;;;6.10;;
81396;SDS011;70852;49.908;8.126;2024-03-22T03:15:41;14.73;;;6.65;;
81396;SDS011;70852;49.908;8.126;2024-03-22T03:18:07;12.57;;;5.75;;
81396;SDS011;70852;49.908;8.126;2024-03-22T03:20:32;15.77;;;6.43;;
81396;SDS011;70852;49.908;8.126;2024-03-22T03:23:00;14.60;;;5.80;;
81396;SDS011;70852;49.908;8.126;2024-03-22T03:25:30;15.32;;;7.03;;
81396;SDS011;70852;49.908;8.126;2024-03-22T03:27:55;15.60;;;6.78;;
81396;SDS011;70852;49.908;8.126;2024-03-22T03:30:22;13.52;;;6.38;;
81396;SDS011;70852;49.908;8.126;2024-03-22T03:32:48;15.05;;;6.75;;
81396;SDS011;70852;49.908;8.126;2024-03-22T03:35:21;15.20;;;7.22;;
81396;SDS011;70852;49.908;8.126;2024-03-22T03:37:47;13.38;;;6.75;;
81396;SDS011;70852;49.908;8.126;2024-03-22T03:40:19;15.02;;;7.00;;
81396;SDS011;70852;49.908;8.126;2024-03-22T03:42:45;14.23;;;7.05;;
81396;SDS011;70852;49.908;8.126;2024-03-22T03:45:10;13.85;;;6.57;;
81396;SDS011;70852;49.908;8.126;2024-03-22T03:47:35;16.13;;;6.80;;
81396;SDS011;70852;49.908;8.126;2024-03-22T03:50:03;16.35;;;7.13;;
81396;SDS011;70852;49.908;8.126;2024-03-22T03:52:31;15.57;;;6.88;;
81396;SDS011;70852;49.908;8.126;2024-03-22T03:54:56;13.60;;;7.03;;
81396;SDS011;70852;49.908;8.126;2024-03-22T03:57:23;13.55;;;6.68;;
81396;SDS011;70852;49.908;8.126;2024-03-22T03:59:54;15.35;;;7.30;;
81396;SDS011;70852;49.908;8.126;2024-03-22T04:02:22;15.68;;;6.93;;
81396;SDS011;70852;49.908;8.126;2024-03-22T04:04:47;16.50;;;6.93;;
81396;SDS011;70852;49.908;8.126;2024-03-22T04:07:16;14.05;;;6.82;;
81396;SDS011;70852;49.908;8.126;2024-03-22T04:09:44;15.50;;;6.18;;
81396;SDS011;70852;49.908;8.126;2024-03-22T04:12:09;13.75;;;6.13;;
81396;SDS011;70852;49.908;8.126;2024-03-22T04:14:34;11.65;;;5.75;;
81396;SDS011;70852;49.908;8.126;2024-03-22T04:17:00;15.20;;;7.00;;
81396;SDS011;70852;49.908;8.126;2024-03-22T04:19:27;13.10;;;6.38;;
81396;SDS011;70852;49.908;8.126;2024-03-22T04:21:54;17.65;;;7.53;;
81396;SDS011;70852;49.908;8.126;2024-03-22T04:24:22;13.45;;;6.40;;
81396;SDS011;70852;49.908;8.126;2024-03-22T04:26:50;14.90;;;6.28;;
81396;SDS011;70852;49.908;8.126;2024-03-22T04:29:20;15.38;;;7.45;;
81396;SDS011;70852;49.908;8.126;2024-03-22T04:31:48;14.40;;;6.50;;
81396;SDS011;70852;49.908;8.126;2024-03-22T04:34:23;13.57;;;6.32;;
81396;SDS011;70852;49.908;8.126;2024-03-22T04:36:50;13.02;;;6.68;;
81396;SDS011;70852;49.908;8.126;2024-03-22T04:39:18;14.07;;;6.40;;
81396;SDS011;70852;49.908;8.126;2024-03-22T04:41:44;14.60;;;6.28;;
81396;SDS011;70852;49.908;8.126;2024-03-22T04:44:10;15.48;;;6.53;;
81396;SDS011;70852;49.908;8.126;2024-03-22T04:46:35;12.38;;;6.50;;
81396;SDS011;70852;49.908;8.126;2024-03-22T04:49:05;15.82;;;7.05;;
81396;SDS011;70852;49.908;8.126;2024-03-22T04:51:30;14.10;;;5.95;;
81396;SDS011;70852;49.908;8.126;2024-03-22T04:53:55;12.90;;;6.35;;
81396;SDS011;70852;49.908;8.126;2024-03-22T04:56:21;15.45;;;7.20;;
81396;SDS011;70852;49.908;8.126;2024-03-22T04:58:46;12.40;;;6.38;;
81396;SDS011;70852;49.908;8.126;2024-03-22T05:01:11;12.80;;;6.65;;
81396;SDS011;70852;49.908;8.126;2024-03-22T05:03:38;17.70;;;6.85;;
81396;SDS011;70852;49.908;8.126;2024-03-22T05:06:08;15.82;;;6.53;;
81396;SDS011;70852;49.908;8.126;2024-03-22T05:08:34;14.40;;;5.68;;
81396;SDS011;70852;49.908;8.126;2024-03-22T05:10:59;14.75;;;6.60;;
81396;SDS011;70852;49.908;8.126;2024-03-22T05:13:28;15.52;;;6.82;;
81396;SDS011;70852;49.908;8.126;2024-03-22T05:15:53;15.05;;;6.63;;
81396;SDS011;70852;49.908;8.126;2024-03-22T05:18:18;14.18;;;6.22;;
81396;SDS011;70852;49.908;8.126;2024-03-22T05:20:46;15.70;;;6.72;;
81396;SDS011;70852;49.908;8.126;2024-03-22T05:23:14;12.77;;;6.13;;
81396;SDS011;70852;49.908;8.126;2024-03-22T05:25:41;13.18;;;6.03;;
81396;SDS011;70852;49.908;8.126;2024-03-22T05:28:07;12.18;;;5.97;;
81396;SDS011;70852;49.908;8.126;2024-03-22T05:30:34;12.35;;;6.22;;
81396;SDS011;70852;49.908;8.126;2024-03-22T05:33:00;12.00;;;5.82;;
81396;SDS011;70852;49.908;8.126;2024-03-22T05:35:27;11.10;;;5.63;;
81396;SDS011;70852;49.908;8.126;2024-03-22T05:37:55;12.38;;;5.75;;
81396;SDS011;70852;49.908;8.126;2024-03-22T05:40:23;13.15;;;6.63;;
81396;SDS011;70852;49.908;8.126;2024-03-22T05:42:49;12.90;;;5.68;;
81396;SDS011;70852;49.908;8.126;2024-03-22T05:45:14;12.65;;;5.78;;
81396;SDS011;70852;49.908;8.126;2024-03-22T05:47:41;14.23;;;6.22;;
81396;SDS011;70852;49.908;8.126;2024-03-22T05:50:07;10.75;;;5.82;;
81396;SDS011;70852;49.908;8.126;2024-03-22T05:52:33;14.20;;;6.68;;
81396;SDS011;70852;49.908;8.126;2024-03-22T05:54:59;13.98;;;6.03;;
81396;SDS011;70852;49.908;8.126;2024-03-22T05:57:26;12.52;;;6.18;;
81396;SDS011;70852;49.908;8.126;2024-03-22T05:59:52;15.30;;;6.20;;
81396;SDS011;70852;49.908;8.126;2024-03-22T06:02:18;12.93;;;5.75;;
81396;SDS011;70852;49.908;8.126;2024-03-22T06:04:43;13.63;;;6.25;;
81396;SDS011;70852;49.908;8.126;2024-03-22T06:07:08;12.18;;;5.75;;
81396;SDS011;70852;49.908;8.126;2024-03-22T06:09:34;13.35;;;6.35;;
81396;SDS011;70852;49.908;8.126;2024-03-22T06:14:39;14.52;;;5.93;;
81396;SDS011;70852;49.908;8.126;2024-03-22T06:17:11;12.55;;;5.70;;
81396;SDS011;70852;49.908;8.126;2024-03-22T06:19:42;12.40;;;5.82;;
81396;SDS011;70852;49.908;8.126;2024-03-22T06:22:07;13.90;;;5.63;;
81396;SDS011;70852;49.908;8.126;2024-03-22T06:24:32;12.85;;;6.32;;
81396;SDS011;70852;49.908;8.126;2024-03-22T06:26:58;13.93;;;6.35;;
81396;SDS011;70852;49.908;8.126;2024-03-22T06:29:25;11.00;;;5.82;;
81396;SDS011;70852;49.908;8.126;2024-03-22T06:31:53;12.27;;;6.25;;
81396;SDS011;70852;49.908;8.126;2024-03-22T06:34:18;10.88;;;5.40;;
81396;SDS011;70852;49.908;8.126;2024-03-22T06:36:44;11.63;;;5.72;;
81396;SDS011;70852;49.908;8.126;2024-03-22T06:39:10;12.02;;;6.15;;
81396;SDS011;70852;49.908;8.126;2024-03-22T06:41:35;14.15;;;5.97;;
81396;SDS011;70852;49.908;8.126;2024-03-22T06:44:03;10.88;;;5.93;;
81396;SDS011;70852;49.908;8.126;2024-03-22T06:46:34;12.18;;;5.25;;
81396;SDS011;70852;49.908;8.126;2024-03-22T06:48:59;11.75;;;6.13;;
81396;SDS011;70852;49.908;8.126;2024-03-22T06:51:25;10.20;;;5.80;;
81396;SDS011;70852;49.908;8.126;2024-03-22T06:53:50;11.38;;;5.90;;
81396;SDS011;70852;49.908;8.126;2024-03-22T06:56:17;11.07;;;5.15;;
81396;SDS011;70852;49.908;8.126;2024-03-22T06:58:43;12.75;;;6.13;;
81396;SDS011;70852;49.908;8.126;2024-03-22T07:01:11;11.55;;;4.68;;
81396;SDS011;70852;49.908;8.126;2024-03-22T07:03:36;14.73;;;5.72;;
81396;SDS011;70852;49.908;8.126;2024-03-22T07:06:02;13.13;;;5.95;;
81396;SDS011;70852;49.908;8.126;2024-03-22T07:08:28;13.40;;;6.28;;
81396;SDS011;70852;49.908;8.126;2024-03-22T07:10:53;11.93;;;6.00;;
81396;SDS011;70852;49.908;8.126;2024-03-22T07:13:21;13.77;;;6.68;;
81396;SDS011;70852;49.908;8.126;2024-03-22T07:15:47;11.32;;;5.88;;
81396;SDS011;70852;49.908;8.126;2024-03-22T07:18:12;11.10;;;5.07;;
81396;SDS011;70852;49.908;8.126;2024-03-22T07:20:38;10.32;;;5.35;;
81396;SDS011;70852;49.908;8.126;2024-03-22T07:23:04;10.75;;;5.35;;
81396;SDS011;70852;49.908;8.126;2024-03-22T07:25:29;11.90;;;5.55;;
81396;SDS011;70852;49.908;8.126;2024-03-22T07:27:54;11.63;;;5.13;;
81396;SDS011;70852;49.908;8.126;2024-03-22T07:30:20;13.18;;;5.75;;
81396;SDS011;70852;49.908;8.126;2024-03-22T07:32:48;12.05;;;4.65;;
81396;SDS011;70852;49.908;8.126;2024-03-22T07:35:13;12.70;;;5.60;;
81396;SDS011;70852;49.908;8.126;2024-03-22T07:37:39;11.50;;;5.13;;
81396;SDS011;70852;49.908;8.126;2024-03-22T07:40:04;11.23;;;5.32;;
81396;SDS011;70852;49.908;8.126;2024-03-22T07:42:30;11.68;;;5.68;;
81396;SDS011;70852;49.908;8.126;2024-03-22T07:44:58;11.40;;;5.40;;
81396;SDS011;70852;49.908;8.126;2024-03-22T07:47:24;8.48;;;4.53;;
81396;SDS011;70852;49.908;8.126;2024-03-22T07:49:50;11.57;;;5.70;;
81396;SDS011;70852;49.908;8.126;2024-03-22T07:52:19;12.45;;;5.60;;
81396;SDS011;70852;49.908;8.126;2024-03-22T07:54:44;10.63;;;5.15;;
81396;SDS011;70852;49.908;8.126;2024-03-22T07:57:12;12.00;;;5.25;;
81396;SDS011;70852;49.908;8.126;2024-03-22T07:59:37;10.80;;;4.63;;
81396;SDS011;70852;49.908;8.126;2024-03-22T08:02:03;10.85;;;4.60;;
81396;SDS011;70852;49.908;8.126;2024-03-22T08:04:31;11.80;;;4.65;;
81396;SDS011;70852;49.908;8.126;2024-03-22T08:06:56;10.48;;;5.03;;
81396;SDS011;70852;49.908;8.126;2024-03-22T08:09:24;11.13;;;5.63;;
81396;SDS011;70852;49.908;8.126;2024-03-22T08:11:49;10.57;;;4.88;;
81396;SDS011;70852;49.908;8.126;2024-03-22T08:14:14;11.15;;;5.47;;
81396;SDS011;70852;49.908;8.126;2024-03-22T08:16:44;10.23;;;5.07;;
81396;SDS011;70852;49.908;8.126;2024-03-22T08:19:12;10.38;;;5.43;;
81396;SDS011;70852;49.908;8.126;2024-03-22T08:21:37;9.18;;;4.43;;
81396;SDS011;70852;49.908;8.126;2024-03-22T08:24:02;11.40;;;4.85;;
81396;SDS011;70852;49.908;8.126;2024-03-22T08:26:30;12.25;;;6.93;;
81396;SDS011;70852;49.908;8.126;2024-03-22T08:28:58;13.00;;;5.65;;
81396;SDS011;70852;49.908;8.126;2024-03-22T08:31:26;14.18;;;6.18;;
81396;SDS011;70852;49.908;8.126;2024-03-22T08:33:53;11.10;;;6.00;;
81396;SDS011;70852;49.908;8.126;2024-03-22T08:36:20;14.50;;;5.90;;
81396;SDS011;70852;49.908;8.126;2024-03-22T08:38:49;8.70;;;5.30;;
81396;SDS011;70852;49.908;8.126;2024-03-22T08:41:14;12.57;;;5.80;;
81396;SDS011;70852;49.908;8.126;2024-03-22T08:43:42;9.95;;;5.20;;
81396;SDS011;70852;49.908;8.126;2024-03-22T08:46:10;9.60;;;4.88;;
81396;SDS011;70852;49.908;8.126;2024-03-22T08:48:36;9.88;;;5.18;;
81396;SDS011;70852;49.908;8.126;2024-03-22T08:51:01;12.18;;;5.60;;
81396;SDS011;70852;49.908;8.126;2024-03-22T08:53:26;10.23;;;5.63;;
81396;SDS011;70852;49.908;8.126;2024-03-22T08:55:56;11.23;;;5.32;;
81396;SDS011;70852;49.908;8.126;2024-03-22T08:58:22;12.57;;;5.38;;
81396;SDS011;70852;49.908;8.126;2024-03-22T09:00:47;8.68;;;5.35;;
81396;SDS011;70852;49.908;8.126;2024-03-22T09:03:15;11.50;;;5.47;;
81396;SDS011;70852;49.908;8.126;2024-03-22T09:05:40;10.82;;;5.20;;
81396;SDS011;70852;49.908;8.126;2024-03-22T09:08:06;8.32;;;5.05;;
81396;SDS011;70852;49.908;8.126;2024-03-22T09:10:31;10.45;;;4.70;;
81396;SDS011;70852;49.908;8.126;2024-03-22T09:12:57;11.55;;;4.22;;
81396;SDS011;70852;49.908;8.126;2024-03-22T09:15:25;8.77;;;3.00;;
81396;SDS011;70852;49.908;8.126;2024-03-22T09:17:51;8.13;;;3.33;;
81396;SDS011;70852;49.908;8.126;2024-03-22T09:20:17;6.75;;;3.60;;
81396;SDS011;70852;49.908;8.126;2024-03-22T09:22:42;6.47;;;2.88;;
81396;SDS011;70852;49.908;8.126;2024-03-22T09:25:07;5.30;;;2.75;;
81396;SDS011;70852;49.908;8.126;2024-03-22T09:27:33;8.70;;;2.53;;
81396;SDS011;70852;49.908;8.126;2024-03-22T09:30:00;9.18;;;2.83;;
81396;SDS011;70852;49.908;8.126;2024-03-22T09:32:26;5.82;;;3.00;;
81396;SDS011;70852;49.908;8.126;2024-03-22T09:34:51;4.53;;;2.65;;
81396;SDS011;70852;49.908;8.126;2024-03-22T09:37:19;6.82;;;2.80;;
81396;SDS011;70852;49.908;8.126;2024-03-22T09:39:44;4.88;;;2.78;;
81396;SDS011;70852;49.908;8.126;2024-03-22T09:42:13;6.25;;;2.90;;
81396;SDS011;70852;49.908;8.126;2024-03-22T09:44:44;6.10;;;2.95;;
81396;SDS011;70852;49.908;8.126;2024-03-22T09:47:14;6.13;;;3.00;;
81396;SDS011;70852;49.908;8.126;2024-03-22T09:49:40;6.38;;;3.55;;
81396;SDS011;70852;49.908;8.126;2024-03-22T09:52:11;6.97;;;3.20;;
81396;SDS011;70852;49.908;8.126;2024-03-22T09:54:43;7.93;;;3.38;;
81396;SDS011;70852;49.908;8.126;2024-03-22T09:57:14;7.80;;;3.65;;
81396;SDS011;70852;49.908;8.126;2024-03-22T09:59:46;6.85;;;2.90;;
81396;SDS011;70852;49.908;8.126;2024-03-22T10:02:12;6.18;;;2.95;;
81396;SDS011;70852;49.908;8.126;2024-03-22T10:04:38;7.00;;;3.20;;
81396;SDS011;70852;49.908;8.126;2024-03-22T10:07:06;8.10;;;3.33;;
81396;SDS011;70852;49.908;8.126;2024-03-22T10:09:37;6.10;;;3.40;;
81396;SDS011;70852;49.908;8.126;2024-03-22T10:12:05;8.82;;;3.78;;
81396;SDS011;70852;49.908;8.126;2024-03-22T10:14:31;5.57;;;2.97;;
81396;SDS011;70852;49.908;8.126;2024-03-22T10:16:58;7.53;;;3.38;;
81396;SDS011;70852;49.908;8.126;2024-03-22T10:19:24;8.63;;;2.65;;
81396;SDS011;70852;49.908;8.126;2024-03-22T10:22:01;7.50;;;2.90;;
81396;SDS011;70852;49.908;8.126;2024-03-22T10:24:32;8.50;;;2.97;;
81396;SDS011;70852;49.908;8.126;2024-03-22T10:26:58;6.60;;;3.45;;
81396;SDS011;70852;49.908;8.126;2024-03-22T10:29:28;7.43;;;3.22;;
81396;SDS011;70852;49.908;8.126;2024-03-22T10:31:54;8.38;;;3.20;;
81396;SDS011;70852;49.908;8.126;2024-03-22T10:34:25;7.88;;;3.22;;
81396;SDS011;70852;49.908;8.126;2024-03-22T10:36:53;5.93;;;3.38;;
81396;SDS011;70852;49.908;8.126;2024-03-22T10:39:24;6.25;;;3.53;;
81396;SDS011;70852;49.908;8.126;2024-03-22T10:41:51;5.70;;;3.20;;
81396;SDS011;70852;49.908;8.126;2024-03-22T10:44:19;5.72;;;3.20;;
81396;SDS011;70852;49.908;8.126;2024-03-22T10:46:48;10.30;;;3.92;;
81396;SDS011;70852;49.908;8.126;2024-03-22T10:49:17;6.72;;;3.30;;
81396;SDS011;70852;49.908;8.126;2024-03-22T10:51:49;5.78;;;3.33;;
81396;SDS011;70852;49.908;8.126;2024-03-22T10:54:20;9.90;;;4.03;;
81396;SDS011;70852;49.908;8.126;2024-03-22T10:56:49;7.97;;;4.13;;
81396;SDS011;70852;49.908;8.126;2024-03-22T10:59:18;8.88;;;3.88;;
81396;SDS011;70852;49.908;8.126;2024-03-22T11:01:48;7.82;;;4.65;;
81396;SDS011;70852;49.908;8.126;2024-03-22T11:04:17;9.25;;;4.35;;
81396;SDS011;70852;49.908;8.126;2024-03-22T11:06:48;6.40;;;4.13;;
81396;SDS011;70852;49.908;8.126;2024-03-22T11:09:26;6.93;;;3.65;;
81396;SDS011;70852;49.908;8.126;2024-03-22T11:11:52;7.38;;;4.72;;
81396;SDS011;70852;49.908;8.126;2024-03-22T11:14:19;7.80;;;4.25;;
81396;SDS011;70852;49.908;8.126;2024-03-22T11:16:49;6.30;;;3.85;;
81396;SDS011;70852;49.908;8.126;2024-03-22T11:19:15;7.85;;;5.07;;
81396;SDS011;70852;49.908;8.126;2024-03-22T11:21:40;7.40;;;4.57;;
81396;SDS011;70852;49.908;8.126;2024-03-22T11:24:08;6.88;;;4.45;;
81396;SDS011;70852;49.908;8.126;2024-03-22T11:26:35;7.75;;;4.53;;
81396;SDS011;70852;49.908;8.126;2024-03-22T11:29:05;8.93;;;4.35;;
81396;SDS011;70852;49.908;8.126;2024-03-22T11:31:33;7.43;;;4.20;;
81396;SDS011;70852;49.908;8.126;2024-03-22T11:33:58;7.63;;;4.20;;
81396;SDS011;70852;49.908;8.126;2024-03-22T11:36:27;7.55;;;4.47;;
81396;SDS011;70852;49.908;8.126;2024-03-22T11:38:54;8.38;;;5.00;;
81396;SDS011;70852;49.908;8.126;2024-03-22T11:41:21;7.90;;;4.57;;
81396;SDS011;70852;49.908;8.126;2024-03-22T11:43:51;7.55;;;4.95;;
81396;SDS011;70852;49.908;8.126;2024-03-22T11:46:22;9.18;;;4.22;;
81396;SDS011;70852;49.908;8.126;2024-03-22T11:48:50;8.35;;;4.72;;
81396;SDS011;70852;49.908;8.126;2024-03-22T11:51:16;8.68;;;4.72;;
81396;SDS011;70852;49.908;8.126;2024-03-22T11:53:48;8.23;;;5.13;;
81396;SDS011;70852;49.908;8.126;2024-03-22T11:56:17;9.77;;;5.20;;
81396;SDS011;70852;49.908;8.126;2024-03-22T11:58:42;8.82;;;4.93;;
81396;SDS011;70852;49.908;8.126;2024-03-22T12:01:12;11.13;;;5.18;;
81396;SDS011;70852;49.908;8.126;2024-03-22T12:03:44;9.77;;;5.47;;
81396;SDS011;70852;49.908;8.126;2024-03-22T12:06:12;10.63;;;5.68;;
81396;SDS011;70852;49.908;8.126;2024-03-22T12:08:38;8.63;;;5.32;;
81396;SDS011;70852;49.908;8.126;2024-03-22T12:11:06;10.40;;;5.10;;
81396;SDS011;70852;49.908;8.126;2024-03-22T12:13:32;10.13;;;5.78;;
81396;SDS011;70852;49.908;8.126;2024-03-22T12:16:00;7.85;;;4.60;;
81396;SDS011;70852;49.908;8.126;2024-03-22T12:18:26;8.75;;;5.38;;
81396;SDS011;70852;49.908;8.126;2024-03-22T12:20:53;10.32;;;5.25;;
81396;SDS011;70852;49.908;8.126;2024-03-22T12:23:23;11.77;;;5.88;;
81396;SDS011;70852;49.908;8.126;2024-03-22T12:25:54;12.88;;;6.22;;
81396;SDS011;70852;49.908;8.126;2024-03-22T12:28:20;8.73;;;5.40;;
81396;SDS011;70852;49.908;8.126;2024-03-22T12:30:50;12.23;;;5.97;;
81396;SDS011;70852;49.908;8.126;2024-03-22T12:33:18;11.70;;;6.28;;
81396;SDS011;70852;49.908;8.126;2024-03-22T12:35:43;12.38;;;6.45;;
81396;SDS011;70852;49.908;8.126;2024-03-22T12:38:09;11.55;;;6.35;;
81396;SDS011;70852;49.908;8.126;2024-03-22T12:40:37;11.27;;;6.18;;
81396;SDS011;70852;49.908;8.126;2024-03-22T12:43:03;10.95;;;5.97;;
81396;SDS011;70852;49.908;8.126;2024-03-22T12:45:28;11.95;;;7.05;;
81396;SDS011;70852;49.908;8.126;2024-03-22T12:47:54;10.55;;;6.28;;
81396;SDS011;70852;49.908;8.126;2024-03-22T12:50:21;12.48;;;7.18;;
81396;SDS011;70852;49.908;8.126;2024-03-22T12:52:47;11.43;;;6.43;;
81396;SDS011;70852;49.908;8.126;2024-03-22T12:55:12;11.57;;;6.50;;
81396;SDS011;70852;49.908;8.126;2024-03-22T12:57:37;11.80;;;6.13;;
81396;SDS011;70852;49.908;8.126;2024-03-22T13:00:03;12.25;;;6.85;;
81396;SDS011;70852;49.908;8.126;2024-03-22T13:02:40;14.32;;;7.00;;
81396;SDS011;70852;49.908;8.126;2024-03-22T13:05:08;13.48;;;7.45;;
81396;SDS011;70852;49.908;8.126;2024-03-22T13:07:33;11.95;;;7.05;;
81396;SDS011;70852;49.908;8.126;2024-03-22T13:10:01;15.20;;;6.82;;
81396;SDS011;70852;49.908;8.126;2024-03-22T13:12:27;12.10;;;6.40;;
81396;SDS011;70852;49.908;8.126;2024-03-22T13:14:54;14.35;;;6.68;;
81396;SDS011;70852;49.908;8.126;2024-03-22T13:17:19;12.85;;;7.00;;
81396;SDS011;70852;49.908;8.126;2024-03-22T13:19:45;13.10;;;6.93;;
81396;SDS011;70852;49.908;8.126;2024-03-22T13:22:13;12.95;;;7.65;;
81396;SDS011;70852;49.908;8.126;2024-03-22T13:24:40;12.27;;;7.72;;
81396;SDS011;70852;49.908;8.126;2024-03-22T13:27:06;13.98;;;7.68;;
81396;SDS011;70852;49.908;8.126;2024-03-22T13:29:31;10.90;;;7.10;;
81396;SDS011;70852;49.908;8.126;2024-03-22T13:31:56;14.02;;;7.68;;
81396;SDS011;70852;49.908;8.126;2024-03-22T13:34:24;11.05;;;7.05;;
81396;SDS011;70852;49.908;8.126;2024-03-22T13:36:50;12.63;;;7.38;;
81396;SDS011;70852;49.908;8.126;2024-03-22T13:39:16;12.70;;;7.57;;
81396;SDS011;70852;49.908;8.126;2024-03-22T13:41:41;14.05;;;7.50;;
81396;SDS011;70852;49.908;8.126;2024-03-22T13:44:06;13.77;;;7.78;;
81396;SDS011;70852;49.908;8.126;2024-03-22T13:46:33;12.93;;;7.63;;
81396;SDS011;70852;49.908;8.126;2024-03-22T13:49:01;14.82;;;7.75;;
81396;SDS011;70852;49.908;8.126;2024-03-22T13:51:32;14.20;;;8.00;;
81396;SDS011;70852;49.908;8.126;2024-03-22T13:53:59;18.08;;;7.93;;
81396;SDS011;70852;49.908;8.126;2024-03-22T13:56:24;15.32;;;8.00;;
81396;SDS011;70852;49.908;8.126;2024-03-22T13:58:49;14.13;;;7.03;;
81396;SDS011;70852;49.908;8.126;2024-03-22T14:01:15;15.80;;;7.32;;
81396;SDS011;70852;49.908;8.126;2024-03-22T14:03:40;14.55;;;8.48;;
81396;SDS011;70852;49.908;8.126;2024-03-22T14:06:05;14.68;;;8.50;;
81396;SDS011;70852;49.908;8.126;2024-03-22T14:08:31;15.02;;;7.72;;
81396;SDS011;70852;49.908;8.126;2024-03-22T14:10:58;16.38;;;7.32;;
81396;SDS011;70852;49.908;8.126;2024-03-22T14:13:24;14.48;;;8.50;;
81396;SDS011;70852;49.908;8.126;2024-03-22T14:15:52;13.27;;;7.38;;
81396;SDS011;70852;49.908;8.126;2024-03-22T14:18:18;14.95;;;8.10;;
81396;SDS011;70852;49.908;8.126;2024-03-22T14:20:43;14.35;;;8.18;;
81396;SDS011;70852;49.908;8.126;2024-03-22T14:23:08;12.60;;;6.95;;
81396;SDS011;70852;49.908;8.126;2024-03-22T14:25:34;14.30;;;7.68;;
81396;SDS011;70852;49.908;8.126;2024-03-22T14:28:02;13.27;;;7.10;;
81396;SDS011;70852;49.908;8.126;2024-03-22T14:30:27;15.55;;;7.15;;
81396;SDS011;70852;49.908;8.126;2024-03-22T14:32:52;15.00;;;8.55;;
81396;SDS011;70852;49.908;8.126;2024-03-22T14:35:18;15.93;;;8.18;;
81396;SDS011;70852;49.908;8.126;2024-03-22T14:37:47;13.10;;;7.05;;
81396;SDS011;70852;49.908;8.126;2024-03-22T14:40:12;12.32;;;7.80;;